createdAt,value
2017-06-29T00:01:48.505Z,18.20
2017-06-29T00:04:14.532Z,16.40
2017-06-29T00:06:40.576Z,17.47
2017-06-29T00:09:06.745Z,20.00
2017-06-29T00:11:32.768Z,18.20
2017-06-29T00:13:58.792Z,19.50
2017-06-29T00:16:24.826Z,19.00
2017-06-29T00:18:51.617Z,19.20
2017-06-29T00:21:17.657Z,19.53
2017-06-29T00:23:43.701Z,17.10
2017-06-29T00:26:09.732Z,16.90
2017-06-29T00:28:35.776Z,18.47
2017-06-29T00:31:01.812Z,18.33
2017-06-29T00:33:27.817Z,18.97
2017-06-29T00:35:54.592Z,19.50
2017-06-29T00:38:20.632Z,17.77
2017-06-29T00:40:46.660Z,21.27
2017-06-29T00:43:13.441Z,20.37
2017-06-29T00:45:39.473Z,19.17
2017-06-29T00:48:05.525Z,18.80
2017-06-29T00:50:31.607Z,20.67
2017-06-29T00:53:04.680Z,22.80
2017-06-29T00:55:30.718Z,20.57
2017-06-29T00:57:56.775Z,19.63
2017-06-29T01:00:22.808Z,18.87
2017-06-29T01:02:48.869Z,19.53
2017-06-29T01:05:14.925Z,22.53
2017-06-29T01:07:41.736Z,23.10
2017-06-29T01:10:07.893Z,22.57
2017-06-29T01:12:33.945Z,21.10
2017-06-29T01:14:59.960Z,20.30
2017-06-29T01:17:25.973Z,21.80
2017-06-29T01:19:52.015Z,21.60
2017-06-29T01:22:18.012Z,22.40
2017-06-29T01:24:44.813Z,20.97
2017-06-29T01:27:10.873Z,25.47
2017-06-29T01:29:44.025Z,24.77
2017-06-29T01:32:10.804Z,22.83
2017-06-29T01:34:36.866Z,25.57
2017-06-29T01:37:03.637Z,25.20
2017-06-29T01:39:29.701Z,26.50
2017-06-29T01:41:55.752Z,26.43
2017-06-29T01:44:21.778Z,25.47
2017-06-29T01:46:47.866Z,24.47
2017-06-29T01:49:13.917Z,28.43
2017-06-29T01:51:40.722Z,27.63
2017-06-29T01:54:06.749Z,28.40
2017-06-29T01:56:33.619Z,29.73
2017-06-29T01:58:59.649Z,27.57
2017-06-29T02:01:25.692Z,28.93
2017-06-29T02:03:51.729Z,28.93
2017-06-29T02:06:17.749Z,29.70
2017-06-29T02:08:43.806Z,28.87
2017-06-29T02:11:09.854Z,31.60
2017-06-29T02:13:35.858Z,29.47
2017-06-29T02:16:02.626Z,27.80
2017-06-29T02:18:28.672Z,30.33
2017-06-29T02:20:54.715Z,28.00
2017-06-29T02:23:20.729Z,28.63
2017-06-29T02:25:46.753Z,31.13
2017-06-29T02:28:12.805Z,30.70
2017-06-29T02:30:38.841Z,30.47
2017-06-29T02:33:04.868Z,32.07
2017-06-29T02:35:30.900Z,33.30
2017-06-29T02:37:56.924Z,32.23
2017-06-29T02:40:22.937Z,32.30
2017-06-29T02:42:48.981Z,29.90
2017-06-29T02:45:15.019Z,31.70
2017-06-29T02:47:41.097Z,30.67
2017-06-29T02:50:07.873Z,31.40
2017-06-29T02:52:33.904Z,33.60
2017-06-29T02:54:59.936Z,32.47
2017-06-29T02:57:26.713Z,33.67
2017-06-29T02:59:52.712Z,30.70
2017-06-29T03:02:18.748Z,33.13
2017-06-29T03:04:44.785Z,35.50
2017-06-29T03:07:11.550Z,35.70
2017-06-29T03:09:37.585Z,39.77
2017-06-29T03:12:03.665Z,37.27
2017-06-29T03:14:29.677Z,35.77
2017-06-29T03:16:55.742Z,37.53
2017-06-29T03:19:22.533Z,37.70
2017-06-29T03:21:48.528Z,35.80
2017-06-29T03:24:14.553Z,38.13
2017-06-29T03:26:40.597Z,36.77
2017-06-29T03:29:06.648Z,35.77
2017-06-29T03:31:32.692Z,37.80
2017-06-29T03:33:58.762Z,35.40
2017-06-29T03:36:24.809Z,36.03
2017-06-29T03:38:50.866Z,37.53
2017-06-29T03:41:16.881Z,35.90
2017-06-29T03:43:42.945Z,35.90
2017-06-29T03:46:09.013Z,36.80
2017-06-29T03:48:35.137Z,38.30
2017-06-29T03:51:01.173Z,36.17
2017-06-29T03:53:27.193Z,37.30
2017-06-29T03:55:53.977Z,39.10
2017-06-29T03:58:20.023Z,38.00
2017-06-29T04:00:46.074Z,37.43
2017-06-29T04:03:12.116Z,38.27
2017-06-29T04:05:38.165Z,38.53
2017-06-29T04:08:04.921Z,36.83
2017-06-29T04:10:30.953Z,36.70
2017-06-29T04:12:56.968Z,38.70
2017-06-29T04:15:23.029Z,38.77
2017-06-29T04:17:49.087Z,36.70
2017-06-29T04:20:15.119Z,39.50
2017-06-29T04:22:41.889Z,39.20
2017-06-29T04:25:07.961Z,38.23
2017-06-29T04:27:34.725Z,36.50
2017-06-29T04:30:00.743Z,38.60
2017-06-29T04:32:26.766Z,37.80
2017-06-29T04:34:52.805Z,37.07
2017-06-29T04:37:18.843Z,37.63
2017-06-29T04:39:44.983Z,42.00
2017-06-29T04:42:11.050Z,42.30
2017-06-29T04:44:37.069Z,43.07
2017-06-29T04:47:03.865Z,37.37
2017-06-29T04:49:29.897Z,39.53
2017-06-29T04:51:55.929Z,40.27
2017-06-29T04:54:21.944Z,39.17
2017-06-29T04:56:48.130Z,39.57
2017-06-29T04:59:14.169Z,40.27
2017-06-29T05:01:40.201Z,43.33
2017-06-29T05:04:06.262Z,38.13
2017-06-29T05:06:32.318Z,41.47
2017-06-29T05:08:58.348Z,41.80
2017-06-29T05:11:24.393Z,41.17
2017-06-29T05:13:50.487Z,41.20
2017-06-29T05:16:16.545Z,39.30
2017-06-29T05:18:42.561Z,40.77
2017-06-29T05:21:08.593Z,41.37
2017-06-29T05:23:36.858Z,41.40
2017-06-29T05:26:02.931Z,42.17
2017-06-29T05:28:28.995Z,43.03
2017-06-29T05:30:55.027Z,42.63
2017-06-29T05:33:21.057Z,42.53
2017-06-29T05:35:47.113Z,42.27
2017-06-29T05:38:13.151Z,41.40
2017-06-29T05:40:39.192Z,45.87
2017-06-29T05:43:05.237Z,43.20
2017-06-29T05:45:32.000Z,43.50
2017-06-29T05:47:58.060Z,42.70
2017-06-29T05:50:24.165Z,40.67
2017-06-29T05:52:50.960Z,39.10
2017-06-29T05:55:16.988Z,40.70
2017-06-29T05:57:43.030Z,38.97
2017-06-29T06:00:09.816Z,40.47
2017-06-29T06:02:35.850Z,38.53
2017-06-29T06:05:01.897Z,36.30
2017-06-29T06:07:27.932Z,38.07
2017-06-29T06:09:53.993Z,36.40
2017-06-29T06:12:20.779Z,36.13
2017-06-29T06:14:46.848Z,35.37
2017-06-29T06:17:12.877Z,35.30
2017-06-29T06:19:40.408Z,32.50
2017-06-29T06:22:06.449Z,33.70
2017-06-29T06:24:32.506Z,30.00
2017-06-29T06:26:59.273Z,31.33
2017-06-29T06:29:25.302Z,28.53
2017-06-29T06:31:51.342Z,28.97
2017-06-29T06:34:18.113Z,25.00
2017-06-29T06:36:44.149Z,28.67
2017-06-29T06:39:10.173Z,29.20
2017-06-29T06:41:36.939Z,26.73
2017-06-29T06:44:02.983Z,28.63
2017-06-29T06:46:29.009Z,22.40
2017-06-29T06:48:55.034Z,23.43
2017-06-29T06:51:21.804Z,20.90
2017-06-29T06:53:47.837Z,22.30
2017-06-29T06:56:13.868Z,22.43
2017-06-29T06:58:40.666Z,22.93
2017-06-29T07:01:06.693Z,20.50
2017-06-29T07:03:32.722Z,21.30
2017-06-29T07:05:58.793Z,19.30
2017-06-29T07:08:24.833Z,20.53
2017-06-29T07:10:51.605Z,20.50
2017-06-29T07:13:17.628Z,21.07
2017-06-29T07:15:43.674Z,19.83
2017-06-29T07:18:10.461Z,19.73
2017-06-29T07:20:36.520Z,19.00
2017-06-29T07:23:02.565Z,21.70
2017-06-29T07:25:28.593Z,18.90
2017-06-29T07:27:54.625Z,18.30
2017-06-29T07:30:21.409Z,18.80
2017-06-29T07:32:47.449Z,17.70
2017-06-29T07:35:13.521Z,18.00
2017-06-29T07:37:39.580Z,18.63
2017-06-29T07:40:06.372Z,17.57
2017-06-29T07:42:32.428Z,15.40
2017-06-29T07:44:59.232Z,14.60
2017-06-29T07:47:25.356Z,14.30
2017-06-29T07:49:51.392Z,19.03
2017-06-29T07:52:17.429Z,16.70
2017-06-29T07:54:43.480Z,20.00
2017-06-29T07:57:10.265Z,16.67
2017-06-29T07:59:36.316Z,16.17
2017-06-29T08:02:02.369Z,15.83
2017-06-29T08:04:28.407Z,14.63
2017-06-29T08:06:54.425Z,16.67
2017-06-29T08:09:20.468Z,18.63
2017-06-29T08:11:47.240Z,16.37
2017-06-29T08:14:13.289Z,17.40
2017-06-29T08:16:39.313Z,15.00
2017-06-29T08:19:06.077Z,16.20
2017-06-29T08:21:32.108Z,19.57
2017-06-29T08:23:58.132Z,20.33
2017-06-29T08:26:24.184Z,19.10
2017-06-29T08:28:50.237Z,21.23
2017-06-29T08:31:16.271Z,18.90
2017-06-29T08:33:43.063Z,17.37
2017-06-29T08:36:09.089Z,17.77
2017-06-29T08:38:35.148Z,17.67
2017-06-29T08:41:01.192Z,17.30
2017-06-29T08:43:27.220Z,17.43
2017-06-29T08:45:54.005Z,17.03
2017-06-29T08:48:20.104Z,18.27
2017-06-29T08:50:46.136Z,17.97
2017-06-29T08:53:12.150Z,19.33
2017-06-29T08:55:38.196Z,17.07
2017-06-29T08:58:04.984Z,18.67
2017-06-29T09:00:31.020Z,14.77
2017-06-29T09:02:57.041Z,14.83
2017-06-29T09:05:23.804Z,16.20
2017-06-29T09:07:49.825Z,14.80
2017-06-29T09:10:15.872Z,12.73
2017-06-29T09:12:41.905Z,12.10
2017-06-29T09:15:07.933Z,13.47
2017-06-29T09:17:33.977Z,13.60
2017-06-29T09:20:00.004Z,13.17
2017-06-29T09:22:26.029Z,12.53
2017-06-29T09:24:52.793Z,15.47
2017-06-29T09:27:18.876Z,12.50
2017-06-29T09:29:52.000Z,13.53
2017-06-29T09:32:18.024Z,12.70
2017-06-29T09:34:44.052Z,12.07
2017-06-29T09:37:10.849Z,13.30
2017-06-29T09:39:36.874Z,10.87
2017-06-29T09:42:03.653Z,10.33
2017-06-29T09:44:29.712Z,10.27
2017-06-29T09:46:55.775Z,9.57
2017-06-29T09:49:21.823Z,9.50
2017-06-29T09:51:48.633Z,10.50
2017-06-29T09:54:14.667Z,9.07
2017-06-29T09:56:40.818Z,11.10
2017-06-29T09:59:06.935Z,10.00
2017-06-29T10:01:32.968Z,9.70
2017-06-29T10:03:58.996Z,11.60
2017-06-29T10:06:25.786Z,9.37
2017-06-29T10:08:51.813Z,10.13
2017-06-29T10:11:17.856Z,8.63
2017-06-29T10:13:44.625Z,8.83
2017-06-29T10:16:10.701Z,11.00
2017-06-29T10:18:36.839Z,9.23
2017-06-29T10:21:02.885Z,9.57
2017-06-29T10:23:28.988Z,9.00
2017-06-29T10:25:55.021Z,7.93
2017-06-29T10:28:21.069Z,7.53
2017-06-29T10:30:47.125Z,8.00
2017-06-29T10:33:13.186Z,7.40
2017-06-29T10:35:39.849Z,7.30
2017-06-29T10:38:05.994Z,6.07
2017-06-29T10:40:32.780Z,5.20
2017-06-29T10:42:58.844Z,5.40
2017-06-29T10:45:24.864Z,5.53
2017-06-29T10:47:50.929Z,6.70
2017-06-29T10:50:17.713Z,5.80
2017-06-29T10:52:43.756Z,5.80
2017-06-29T10:55:09.781Z,7.60
2017-06-29T10:57:36.561Z,8.13
2017-06-29T11:00:02.631Z,8.00
2017-06-29T11:02:28.673Z,6.30
2017-06-29T11:04:54.760Z,8.50
2017-06-29T11:07:21.002Z,8.70
2017-06-29T11:09:47.929Z,7.30
2017-06-29T11:12:13.965Z,7.43
2017-06-29T11:14:39.988Z,7.00
2017-06-29T11:17:06.013Z,6.50
2017-06-29T11:19:32.793Z,7.27
2017-06-29T11:21:58.824Z,8.70
2017-06-29T11:24:24.851Z,10.63
2017-06-29T11:26:51.620Z,9.37
2017-06-29T11:29:17.672Z,9.70
2017-06-29T11:31:43.730Z,9.23
2017-06-29T11:34:09.839Z,10.37
2017-06-29T11:36:35.880Z,8.67
2017-06-29T11:39:01.949Z,12.97
2017-06-29T11:41:27.997Z,12.13
2017-06-29T11:43:54.033Z,12.33
2017-06-29T11:46:20.149Z,11.10
2017-06-29T11:48:46.173Z,11.17
2017-06-29T11:51:12.939Z,12.00
2017-06-29T11:53:38.989Z,11.03
2017-06-29T11:56:05.757Z,10.97
2017-06-29T11:58:31.794Z,11.80
2017-06-29T12:00:57.856Z,10.60
2017-06-29T12:03:23.888Z,11.53
2017-06-29T12:05:49.949Z,10.20
2017-06-29T12:08:15.965Z,11.20
2017-06-29T12:10:41.984Z,9.97
2017-06-29T12:13:08.760Z,11.47
2017-06-29T12:15:34.823Z,10.70
2017-06-29T12:18:00.875Z,9.13
2017-06-29T12:20:26.938Z,9.17
2017-06-29T12:22:53.057Z,7.33
2017-06-29T12:25:19.142Z,7.17
2017-06-29T12:27:45.157Z,8.30
2017-06-29T12:30:11.960Z,10.20
2017-06-29T12:32:38.005Z,9.00
2017-06-29T12:35:04.781Z,9.07
2017-06-29T12:37:30.833Z,7.50
2017-06-29T12:39:57.640Z,8.23
2017-06-29T12:42:23.673Z,8.10
2017-06-29T12:44:49.689Z,6.70
2017-06-29T12:47:15.789Z,7.13
2017-06-29T12:49:42.557Z,8.70
2017-06-29T12:52:08.589Z,10.00
2017-06-29T12:54:34.649Z,9.00
2017-06-29T12:57:00.726Z,8.37
2017-06-29T12:59:27.497Z,6.60
2017-06-29T13:01:53.528Z,7.07
2017-06-29T13:04:19.589Z,6.93
2017-06-29T13:06:45.653Z,6.70
2017-06-29T13:09:11.684Z,6.40
2017-06-29T13:11:37.709Z,5.13
2017-06-29T13:14:04.497Z,5.20
2017-06-29T13:16:30.570Z,4.67
2017-06-29T13:18:56.625Z,4.00
2017-06-29T13:21:22.653Z,6.33
2017-06-29T13:23:48.689Z,6.47
2017-06-29T13:26:14.741Z,4.83
2017-06-29T13:28:40.793Z,4.40
2017-06-29T13:31:07.565Z,6.57
2017-06-29T13:33:33.628Z,5.30
2017-06-29T13:35:59.665Z,6.10
2017-06-29T13:38:25.745Z,6.17
2017-06-29T13:40:51.784Z,5.57
2017-06-29T13:43:17.824Z,5.30
2017-06-29T13:45:43.864Z,5.20
2017-06-29T13:48:10.664Z,5.53
2017-06-29T13:50:36.706Z,5.30
2017-06-29T13:53:03.465Z,5.10
2017-06-29T13:55:29.556Z,5.27
2017-06-29T13:57:55.580Z,7.90
2017-06-29T14:00:21.607Z,6.70
2017-06-29T14:02:47.644Z,6.07
2017-06-29T14:05:13.666Z,7.30
2017-06-29T14:07:40.459Z,5.97
2017-06-29T14:10:06.517Z,5.80
2017-06-29T14:12:32.556Z,5.20
2017-06-29T14:14:58.585Z,5.20
2017-06-29T14:17:24.643Z,5.80
2017-06-29T14:19:50.707Z,5.90
2017-06-29T14:22:16.764Z,5.20
2017-06-29T14:24:42.785Z,5.00
2017-06-29T14:27:08.843Z,6.30
2017-06-29T14:29:34.872Z,6.33
2017-06-29T14:32:01.645Z,6.50
2017-06-29T14:34:27.701Z,8.13
2017-06-29T14:36:54.504Z,7.77
2017-06-29T14:39:20.568Z,6.90
2017-06-29T14:41:46.593Z,7.30
2017-06-29T14:44:12.632Z,7.63
2017-06-29T14:46:38.676Z,6.03
2017-06-29T14:49:05.453Z,7.83
2017-06-29T14:51:31.488Z,8.60
2017-06-29T14:53:57.528Z,7.70
2017-06-29T14:56:23.568Z,7.83
2017-06-29T14:58:49.617Z,7.10
2017-06-29T15:01:15.659Z,8.67
2017-06-29T15:03:41.684Z,8.53
2017-06-29T15:06:07.706Z,8.60
2017-06-29T15:08:33.732Z,7.70
2017-06-29T15:10:59.785Z,9.10
2017-06-29T15:13:26.564Z,10.20
2017-06-29T15:15:52.641Z,10.30
2017-06-29T15:18:18.681Z,10.70
2017-06-29T15:20:44.741Z,11.20
2017-06-29T15:23:10.812Z,11.37
2017-06-29T15:25:36.832Z,10.70
2017-06-29T15:28:03.004Z,9.60
2017-06-29T15:30:29.057Z,9.60
2017-06-29T15:32:55.116Z,11.33
2017-06-29T15:35:21.177Z,12.20
2017-06-29T15:37:47.964Z,9.20
2017-06-29T15:40:14.001Z,10.90
2017-06-29T15:42:40.035Z,9.83
2017-06-29T15:45:06.093Z,11.60
2017-06-29T15:47:32.145Z,10.80
2017-06-29T15:49:58.933Z,11.90
2017-06-29T15:52:24.960Z,10.67
2017-06-29T15:54:51.016Z,12.47
2017-06-29T15:57:17.072Z,11.43
2017-06-29T15:59:43.132Z,11.40
2017-06-29T16:02:09.177Z,10.83
2017-06-29T16:04:35.224Z,8.77
2017-06-29T16:07:02.053Z,12.10
2017-06-29T16:09:28.845Z,10.77
2017-06-29T16:11:54.904Z,10.83
2017-06-29T16:14:20.973Z,11.57
2017-06-29T16:16:47.024Z,10.60
2017-06-29T16:19:13.056Z,10.97
2017-06-29T16:21:39.121Z,11.10
2017-06-29T16:24:05.280Z,11.57
2017-06-29T16:26:31.317Z,10.10
2017-06-29T16:28:57.417Z,11.07
2017-06-29T16:31:23.469Z,10.77
2017-06-29T16:33:50.280Z,11.77
2017-06-29T16:36:16.308Z,13.13
2017-06-29T16:38:42.396Z,12.00
2017-06-29T16:41:08.429Z,14.10
2017-06-29T16:43:34.484Z,13.30
2017-06-29T16:46:00.513Z,15.37
2017-06-29T16:48:26.574Z,15.63
2017-06-29T16:50:52.600Z,15.23
2017-06-29T16:53:18.636Z,17.60
2017-06-29T16:55:44.694Z,17.10
2017-06-29T16:58:10.741Z,17.10
2017-06-29T17:00:36.789Z,17.67
2017-06-29T17:03:02.835Z,19.10
2017-06-29T17:05:28.873Z,16.87
2017-06-29T17:07:54.910Z,19.10
2017-06-29T17:10:21.688Z,19.60
2017-06-29T17:12:47.717Z,19.13
2017-06-29T17:15:13.773Z,20.10
2017-06-29T17:17:39.876Z,20.43
2017-06-29T17:20:05.962Z,21.10
2017-06-29T17:22:32.757Z,21.30
2017-06-29T17:24:58.833Z,22.00
2017-06-29T17:27:24.925Z,23.23
2017-06-29T17:29:51.723Z,22.30
2017-06-29T17:32:17.761Z,24.70
2017-06-29T17:34:43.836Z,24.40
2017-06-29T17:37:09.868Z,24.50
2017-06-29T17:39:35.932Z,25.30
2017-06-29T17:42:01.965Z,23.17
2017-06-29T17:44:28.014Z,23.70
2017-06-29T17:46:54.064Z,25.97
2017-06-29T17:49:20.094Z,25.07
2017-06-29T17:51:46.145Z,27.83
2017-06-29T17:54:12.180Z,26.33
2017-06-29T17:56:38.261Z,28.07
2017-06-29T17:59:05.072Z,27.07
2017-06-29T18:01:31.104Z,25.40
2017-06-29T18:03:57.129Z,27.30
2017-06-29T18:06:23.173Z,25.47
2017-06-29T18:08:49.229Z,26.93
2017-06-29T18:11:15.256Z,26.73
2017-06-29T18:13:41.285Z,26.80
2017-06-29T18:16:07.343Z,26.67
2017-06-29T18:18:33.376Z,29.37
2017-06-29T18:20:59.421Z,28.23
2017-06-29T18:23:25.489Z,26.53
2017-06-29T18:25:51.529Z,26.60
2017-06-29T18:28:24.540Z,28.57
2017-06-29T18:30:51.340Z,27.27
2017-06-29T18:33:17.381Z,24.30
2017-06-29T18:35:44.147Z,28.27
2017-06-29T18:38:10.200Z,27.10
2017-06-29T18:40:36.230Z,27.63
2017-06-29T18:43:03.000Z,25.97
2017-06-29T18:45:29.021Z,26.70
2017-06-29T18:47:55.060Z,28.27
2017-06-29T18:50:21.853Z,29.37
2017-06-29T18:52:47.919Z,29.53
2017-06-29T18:55:13.961Z,27.60
2017-06-29T18:57:40.021Z,26.03
2017-06-29T19:00:06.115Z,28.23
2017-06-29T19:02:32.905Z,26.57
2017-06-29T19:04:58.956Z,27.17
2017-06-29T19:07:25.729Z,24.93
2017-06-29T19:09:51.809Z,24.70
2017-06-29T19:12:18.600Z,22.70
2017-06-29T19:14:44.645Z,23.03
2017-06-29T19:17:10.693Z,21.20
2017-06-29T19:19:36.720Z,22.27
2017-06-29T19:22:02.839Z,22.70
2017-06-29T19:24:28.891Z,21.80
2017-06-29T19:27:01.829Z,24.60
2017-06-29T19:29:27.886Z,19.87
2017-06-29T19:31:53.926Z,23.17
2017-06-29T19:34:19.950Z,23.40
2017-06-29T19:36:46.084Z,20.97
2017-06-29T19:39:12.877Z,19.90
2017-06-29T19:41:39.028Z,20.93
2017-06-29T19:44:05.153Z,20.10
2017-06-29T19:46:32.428Z,19.93
2017-06-29T19:48:59.170Z,19.53
2017-06-29T19:51:25.425Z,18.50
2017-06-29T19:53:51.532Z,19.83
2017-06-29T19:56:17.554Z,16.97
2017-06-29T19:58:43.664Z,17.87
2017-06-29T20:01:09.820Z,20.23
2017-06-29T20:03:35.976Z,19.77
2017-06-29T20:06:02.134Z,19.50
2017-06-29T20:08:28.359Z,17.17
2017-06-29T20:10:54.435Z,15.37
2017-06-29T20:13:20.502Z,18.27
2017-06-29T20:15:47.285Z,13.60
2017-06-29T20:18:13.328Z,13.97
2017-06-29T20:20:40.120Z,13.60
2017-06-29T20:23:06.174Z,11.43
2017-06-29T20:25:32.948Z,10.20
2017-06-29T20:27:59.005Z,9.60
2017-06-29T20:30:25.044Z,11.00
2017-06-29T20:32:51.090Z,9.30
2017-06-29T20:35:32.149Z,9.53
2017-06-29T20:37:58.201Z,8.33
2017-06-29T20:40:24.237Z,7.73
2017-06-29T20:42:50.267Z,7.80
2017-06-29T20:45:16.310Z,7.33
2017-06-29T20:47:43.104Z,7.80
2017-06-29T20:50:09.136Z,6.40
2017-06-29T20:52:35.200Z,7.17
2017-06-29T20:55:01.233Z,6.73
2017-06-29T20:57:27.282Z,8.00
2017-06-29T20:59:53.309Z,7.87
2017-06-29T21:02:19.352Z,8.20
2017-06-29T21:04:45.405Z,8.70
2017-06-29T21:07:12.193Z,8.47
2017-06-29T21:09:38.221Z,8.20
2017-06-29T21:12:04.243Z,9.20
2017-06-29T21:14:31.020Z,8.60
2017-06-29T21:16:57.054Z,8.53
2017-06-29T21:19:23.112Z,9.10
2017-06-29T21:21:49.157Z,9.73
2017-06-29T21:24:15.206Z,10.30
2017-06-29T21:26:41.981Z,10.87
2017-06-29T21:29:08.043Z,9.97
2017-06-29T21:31:34.832Z,9.70
2017-06-29T21:34:00.880Z,9.90
2017-06-29T21:36:27.713Z,9.73
2017-06-29T21:38:54.503Z,9.10
2017-06-29T21:41:20.565Z,8.07
2017-06-29T21:43:47.097Z,8.63
2017-06-29T21:46:13.153Z,7.67
2017-06-29T21:48:39.189Z,8.20
2017-06-29T21:51:05.988Z,7.27
2017-06-29T21:53:32.018Z,6.50
2017-06-29T21:55:59.802Z,7.00
2017-06-29T21:58:25.850Z,6.57
2017-06-29T22:00:51.893Z,6.93
2017-06-29T22:03:17.943Z,7.77
2017-06-29T22:05:43.976Z,8.47
2017-06-29T22:08:10.014Z,7.00
2017-06-29T22:10:36.042Z,7.23
2017-06-29T22:13:02.145Z,7.33
2017-06-29T22:15:28.188Z,7.37
2017-06-29T22:17:54.633Z,6.60
2017-06-29T22:20:20.668Z,6.93
2017-06-29T22:22:47.479Z,7.00
2017-06-29T22:25:13.533Z,7.60
2017-06-29T22:27:39.572Z,7.63
2017-06-29T22:30:05.613Z,8.33
2017-06-29T22:32:32.389Z,8.00
2017-06-29T22:34:58.440Z,9.50
2017-06-29T22:37:25.213Z,10.40
2017-06-29T22:39:51.274Z,9.90
2017-06-29T22:42:17.305Z,9.17
2017-06-29T22:44:43.337Z,11.67
2017-06-29T22:47:09.401Z,11.00
2017-06-29T22:49:35.470Z,12.20
2017-06-29T22:52:01.500Z,10.40
2017-06-29T22:54:27.520Z,11.53
2017-06-29T22:56:53.573Z,12.30
2017-06-29T22:59:19.592Z,13.03
2017-06-29T23:01:45.624Z,12.73
2017-06-29T23:04:11.718Z,14.67
2017-06-29T23:06:37.757Z,13.70
2017-06-29T23:09:03.821Z,14.77
2017-06-29T23:11:29.845Z,15.20
2017-06-29T23:13:55.868Z,14.00
2017-06-29T23:16:21.896Z,14.83
2017-06-29T23:18:47.929Z,15.20
2017-06-29T23:21:14.689Z,17.90
2017-06-29T23:23:40.753Z,18.63
2017-06-29T23:26:06.771Z,16.40
2017-06-29T23:28:33.540Z,18.50
2017-06-29T23:30:59.602Z,18.03
2017-06-29T23:33:25.665Z,18.47
2017-06-29T23:35:51.684Z,18.10
2017-06-29T23:38:17.704Z,19.77
2017-06-29T23:40:43.732Z,18.17
2017-06-29T23:43:09.777Z,20.33
2017-06-29T23:45:35.849Z,19.93
2017-06-29T23:48:01.917Z,23.00
2017-06-29T23:50:28.074Z,21.47
2017-06-29T23:52:54.113Z,21.60
2017-06-29T23:55:20.127Z,22.60
2017-06-29T23:57:46.165Z,23.60
